createdAt,value
2022-10-19T00:01:23.032Z,38.40
2022-10-19T00:04:07.975Z,40.10
2022-10-19T00:06:50.713Z,37.50
2022-10-19T00:09:32.404Z,33.60
2022-10-19T00:12:14.199Z,31.90
2022-10-19T00:14:57.030Z,35.90
2022-10-19T00:17:39.013Z,34.00
2022-10-19T00:20:20.704Z,32.80
2022-10-19T00:23:02.497Z,36.60
2022-10-19T00:25:55.043Z,29.90
2022-10-19T00:28:37.000Z,32.50
2022-10-19T00:31:18.731Z,29.60
2022-10-19T00:34:01.139Z,30.60
2022-10-19T00:36:42.782Z,32.80
2022-10-19T00:39:24.521Z,33.20
2022-10-19T00:42:06.724Z,32.30
2022-10-19T00:44:48.415Z,30.60
2022-10-19T00:47:31.952Z,33.50
2022-10-19T00:50:15.175Z,30.30
2022-10-19T00:52:57.597Z,31.00
2022-10-19T00:55:41.287Z,29.50
2022-10-19T00:58:23.116Z,31.20
2022-10-19T01:01:06.275Z,25.90
2022-10-19T01:03:48.546Z,27.00
2022-10-19T01:06:31.261Z,32.50
2022-10-19T01:09:13.253Z,31.00
2022-10-19T01:12:07.852Z,25.30
2022-10-19T01:15:22.007Z,26.10
2022-10-19T01:18:23.977Z,25.70
2022-10-19T01:21:21.021Z,26.10
2022-10-19T01:24:23.807Z,25.20
2022-10-19T01:27:25.845Z,25.30
2022-10-19T01:30:15.246Z,22.50
2022-10-19T01:33:15.182Z,24.70
2022-10-19T01:36:15.209Z,24.80
2022-10-19T01:39:17.253Z,24.50
2022-10-19T01:42:16.486Z,30.20
2022-10-19T01:45:09.514Z,24.50
2022-10-19T01:48:10.354Z,25.20
2022-10-19T01:51:05.560Z,26.10
2022-10-19T01:53:52.167Z,23.90
2022-10-19T01:56:36.724Z,21.40
2022-10-19T01:59:21.086Z,23.90
2022-10-19T02:02:04.715Z,24.60
2022-10-19T02:04:50.510Z,26.40
2022-10-19T02:07:33.114Z,27.10
2022-10-19T02:13:03.357Z,23.10
2022-10-19T02:15:50.168Z,25.20
2022-10-19T02:18:38.782Z,24.00
2022-10-19T02:21:21.024Z,21.30
2022-10-19T02:24:02.818Z,23.70
2022-10-19T02:26:44.992Z,20.30
2022-10-19T02:29:27.839Z,23.00
2022-10-19T02:32:10.144Z,21.50
2022-10-19T02:34:52.039Z,34.10
2022-10-19T02:37:34.140Z,25.60
2022-10-19T02:40:15.933Z,22.70
2022-10-19T02:43:04.115Z,23.80
2022-10-19T02:45:56.416Z,27.00
2022-10-19T02:48:40.705Z,19.20
2022-10-19T02:51:29.730Z,20.60
2022-10-19T02:54:11.421Z,17.70
2022-10-19T02:56:53.113Z,20.40
2022-10-19T02:59:34.762Z,21.70
2022-10-19T03:02:17.621Z,18.90
2022-10-19T03:04:59.414Z,22.10
2022-10-19T03:07:42.540Z,20.40
2022-10-19T03:10:24.331Z,18.50
2022-10-19T03:13:06.025Z,18.70
2022-10-19T03:15:48.231Z,16.70
2022-10-19T03:18:29.917Z,19.70
2022-10-19T03:21:13.455Z,18.10
2022-10-19T03:23:55.243Z,21.00
2022-10-19T03:26:36.935Z,15.30
2022-10-19T03:29:18.878Z,18.20
2022-10-19T03:32:00.626Z,15.50
2022-10-19T03:34:42.315Z,15.70
2022-10-19T03:37:24.008Z,16.30
2022-10-19T03:40:06.310Z,14.90
2022-10-19T03:42:48.002Z,19.40
2022-10-19T03:45:29.693Z,14.80
2022-10-19T03:48:11.383Z,16.50
2022-10-19T03:51:02.197Z,13.60
2022-10-19T03:53:44.904Z,16.60
2022-10-19T03:56:28.339Z,16.70
2022-10-19T03:59:15.151Z,14.30
2022-10-19T04:01:56.939Z,16.90
2022-10-19T04:04:38.834Z,20.50
2022-10-19T04:07:20.526Z,21.70
2022-10-19T04:10:02.216Z,17.20
2022-10-19T04:12:44.010Z,20.60
2022-10-19T04:15:25.702Z,18.80
2022-10-19T04:18:07.493Z,16.20
2022-10-19T04:20:49.389Z,13.80
2022-10-19T04:23:34.255Z,17.60
2022-10-19T04:26:16.868Z,16.30
2022-10-19T04:28:59.300Z,16.20
2022-10-19T04:31:41.682Z,19.50
2022-10-19T04:34:24.407Z,17.10
2022-10-19T04:37:06.296Z,15.10
2022-10-19T04:39:47.985Z,16.10
2022-10-19T04:42:29.779Z,20.30
2022-10-19T04:45:11.468Z,17.60
2022-10-19T04:47:56.602Z,14.30
2022-10-19T04:50:38.333Z,15.00
2022-10-19T04:53:20.308Z,17.80
2022-10-19T04:56:05.966Z,15.40
2022-10-19T04:58:48.627Z,17.80
2022-10-19T05:01:31.244Z,16.00
2022-10-19T05:04:13.544Z,17.50
2022-10-19T05:06:55.440Z,14.00
2022-10-19T05:09:40.514Z,16.80
2022-10-19T05:12:22.201Z,14.60
2022-10-19T05:15:04.510Z,16.70
2022-10-19T05:17:46.322Z,14.90
2022-10-19T05:20:28.400Z,13.30
2022-10-19T05:23:10.091Z,21.50
2022-10-19T05:26:02.739Z,14.30
2022-10-19T05:28:49.137Z,14.10
2022-10-19T05:31:33.191Z,12.80
2022-10-19T05:34:15.186Z,13.80
2022-10-19T05:36:57.081Z,12.40
2022-10-19T05:39:38.977Z,14.00
2022-10-19T05:42:20.977Z,11.60
2022-10-19T05:45:02.878Z,18.40
2022-10-19T05:47:44.560Z,13.10
2022-10-19T05:50:27.254Z,10.80
2022-10-19T05:53:09.893Z,15.70
2022-10-19T05:55:51.787Z,11.00
2022-10-19T05:58:35.033Z,15.70
2022-10-19T06:01:19.264Z,11.00
2022-10-19T06:04:02.027Z,15.40
2022-10-19T06:06:43.762Z,14.30
2022-10-19T06:09:25.523Z,11.40
2022-10-19T06:12:07.183Z,13.50
2022-10-19T06:14:51.302Z,15.10
2022-10-19T06:17:33.250Z,13.00
2022-10-19T06:20:15.193Z,10.70
2022-10-19T06:22:56.884Z,16.90
2022-10-19T06:25:38.575Z,10.50
2022-10-19T06:28:20.267Z,15.30
2022-10-19T06:31:03.360Z,14.40
2022-10-19T06:33:49.452Z,11.90
2022-10-19T06:36:32.404Z,14.00
2022-10-19T06:39:14.614Z,12.20
2022-10-19T06:41:56.401Z,11.20
2022-10-19T06:44:40.042Z,13.30
2022-10-19T06:47:21.831Z,12.90
2022-10-19T06:50:07.105Z,8.80
2022-10-19T06:52:48.798Z,9.90
2022-10-19T06:55:30.594Z,9.90
2022-10-19T06:58:12.281Z,11.30
2022-10-19T07:01:01.240Z,14.20
2022-10-19T07:03:43.957Z,11.90
2022-10-19T07:06:28.003Z,12.90
2022-10-19T07:09:09.796Z,12.90
2022-10-19T07:11:52.307Z,8.50
2022-10-19T07:14:38.914Z,10.90
2022-10-19T07:17:20.604Z,7.90
2022-10-19T07:20:02.400Z,8.80
2022-10-19T07:22:44.089Z,10.20
2022-10-19T07:25:27.008Z,13.10
2022-10-19T07:28:08.698Z,10.00
2022-10-19T07:30:50.492Z,17.80
2022-10-19T07:33:32.288Z,10.50
2022-10-19T07:36:14.595Z,11.50
2022-10-19T07:38:56.691Z,11.40
2022-10-19T07:41:38.885Z,10.60
2022-10-19T07:44:20.586Z,17.40
2022-10-19T07:47:02.314Z,12.50
2022-10-19T07:49:44.069Z,11.80
2022-10-19T07:52:25.760Z,16.90
2022-10-19T07:55:07.963Z,13.30
2022-10-19T07:57:50.268Z,8.90
2022-10-19T08:00:31.995Z,14.30
2022-10-19T08:06:19.187Z,12.70
2022-10-19T08:09:01.292Z,8.00
2022-10-19T08:11:43.375Z,10.20
2022-10-19T08:14:25.092Z,9.50
2022-10-19T08:17:06.958Z,9.60
2022-10-19T08:19:48.641Z,9.00
2022-10-19T08:22:30.574Z,11.40
2022-10-19T08:25:12.263Z,12.30
2022-10-19T08:27:53.957Z,9.20
2022-10-19T08:30:36.570Z,15.10
2022-10-19T08:33:18.261Z,10.80
2022-10-19T08:35:59.951Z,9.00
2022-10-19T08:38:44.785Z,15.90
2022-10-19T08:41:35.993Z,15.00
2022-10-19T08:44:30.010Z,15.60
2022-10-19T08:47:23.264Z,13.20
2022-10-19T08:50:23.875Z,14.50
2022-10-19T08:53:13.688Z,15.20
2022-10-19T08:56:08.904Z,14.40
2022-10-19T08:59:22.027Z,15.70
2022-10-19T09:02:16.819Z,14.70
2022-10-19T09:05:05.883Z,21.80
2022-10-19T09:07:53.414Z,21.30
2022-10-19T09:10:39.005Z,18.50
2022-10-19T09:14:04.275Z,9.70
2022-10-19T09:16:47.029Z,10.30
2022-10-19T09:19:31.068Z,6.60
2022-10-19T09:22:19.868Z,9.60
2022-10-19T09:25:13.394Z,8.20
2022-10-19T09:28:31.421Z,7.80
2022-10-19T09:31:31.472Z,9.40
2022-10-19T09:34:36.740Z,9.20
2022-10-19T09:37:25.900Z,11.10
2022-10-19T09:40:18.613Z,5.60
2022-10-19T09:43:08.909Z,6.40
2022-10-19T09:45:59.817Z,6.30
2022-10-19T09:48:49.917Z,5.50
2022-10-19T09:51:50.644Z,8.20
2022-10-19T09:54:36.410Z,6.00
2022-10-19T09:57:22.106Z,7.20
2022-10-19T10:00:04.524Z,7.60
2022-10-19T10:02:51.576Z,6.10
2022-10-19T10:05:41.022Z,7.60
2022-10-19T10:08:36.252Z,11.70
2022-10-19T10:11:31.940Z,7.00
2022-10-19T10:14:35.752Z,6.20
2022-10-19T10:17:30.648Z,7.90
2022-10-19T10:20:32.532Z,6.10
2022-10-19T10:23:24.817Z,6.70
2022-10-19T10:26:18.490Z,7.90
2022-10-19T10:29:01.579Z,7.00
2022-10-19T10:31:43.647Z,8.20
2022-10-19T10:34:50.223Z,9.50
2022-10-19T10:37:40.539Z,6.70
2022-10-19T10:40:31.645Z,11.50
2022-10-19T10:43:17.743Z,8.20
2022-10-19T10:46:19.402Z,9.30
2022-10-19T10:49:07.214Z,9.80
2022-10-19T10:51:53.299Z,5.90
2022-10-19T10:54:35.271Z,4.10
2022-10-19T11:00:14.179Z,8.00
2022-10-19T11:03:16.732Z,7.30
2022-10-19T11:06:00.558Z,8.00
2022-10-19T11:08:57.080Z,5.10
2022-10-19T11:11:56.155Z,7.40
2022-10-19T11:14:51.519Z,6.00
2022-10-19T11:17:37.132Z,5.40
2022-10-19T11:20:19.649Z,10.60
2022-10-19T11:23:15.333Z,12.50
2022-10-19T11:26:29.587Z,8.00
2022-10-19T11:29:30.120Z,10.50
2022-10-19T11:35:28.524Z,19.10
2022-10-19T11:38:42.674Z,14.20
2022-10-19T11:42:06.862Z,14.00
2022-10-19T11:45:03.912Z,4.90
2022-10-19T11:48:21.530Z,9.10
2022-10-19T11:51:21.809Z,7.80
2022-10-19T11:54:23.758Z,7.70
2022-10-19T11:57:19.575Z,5.50
2022-10-19T12:00:15.077Z,16.60
2022-10-19T12:03:33.869Z,9.40
2022-10-19T12:06:29.657Z,16.80
2022-10-19T12:09:23.637Z,10.80
2022-10-19T12:12:26.528Z,3.90
2022-10-19T12:15:26.362Z,6.50
2022-10-19T12:18:38.171Z,2.60
2022-10-19T12:21:22.567Z,6.00
2022-10-19T12:24:11.178Z,7.10
2022-10-19T12:26:54.934Z,9.20
2022-10-19T12:29:42.100Z,6.70
2022-10-19T12:32:25.023Z,4.00
2022-10-19T12:35:25.734Z,4.00
2022-10-19T12:38:18.975Z,6.90
2022-10-19T12:41:07.410Z,6.00
2022-10-19T12:44:09.441Z,4.50
2022-10-19T12:46:58.787Z,8.00
2022-10-19T12:49:50.637Z,6.10
2022-10-19T12:52:49.613Z,5.80
2022-10-19T12:55:35.015Z,5.80
2022-10-19T12:58:26.338Z,7.50
2022-10-19T13:01:15.048Z,5.50
2022-10-19T13:04:13.979Z,6.10
2022-10-19T13:06:58.512Z,9.60
2022-10-19T13:09:46.949Z,9.30
2022-10-19T13:12:43.305Z,7.00
2022-10-19T13:15:34.125Z,9.60
2022-10-19T13:18:44.080Z,9.40
2022-10-19T13:21:47.070Z,10.00
2022-10-19T13:24:35.088Z,11.10
2022-10-19T13:27:28.139Z,12.40
2022-10-19T13:30:44.268Z,9.80
2022-10-19T13:33:29.233Z,10.30
2022-10-19T13:36:12.155Z,13.90
2022-10-19T13:38:59.860Z,9.60
2022-10-19T13:41:50.767Z,11.40
2022-10-19T13:44:35.686Z,11.90
2022-10-19T13:47:32.706Z,7.70
2022-10-19T13:50:26.688Z,6.40
2022-10-19T13:53:23.942Z,5.60
2022-10-19T13:56:24.832Z,9.30
2022-10-19T13:59:29.720Z,17.90
2022-10-19T14:02:39.980Z,10.30
2022-10-19T14:05:59.661Z,13.20
2022-10-19T14:09:19.853Z,13.90
2022-10-19T14:12:15.470Z,7.40
2022-10-19T14:14:58.448Z,8.60
2022-10-19T14:17:42.642Z,7.10
2022-10-19T14:20:29.657Z,7.90
2022-10-19T14:23:19.438Z,6.60
2022-10-19T14:26:03.493Z,8.30
2022-10-19T14:28:45.585Z,8.90
2022-10-19T14:31:36.484Z,7.20
2022-10-19T14:34:18.490Z,10.00
2022-10-19T14:37:00.183Z,8.40
2022-10-19T14:39:41.977Z,7.20
2022-10-19T14:42:23.871Z,7.70
2022-10-19T14:45:13.548Z,5.70
2022-10-19T14:47:58.887Z,7.30
2022-10-19T14:50:54.543Z,7.70
2022-10-19T14:53:50.058Z,9.60
2022-10-19T14:56:35.091Z,5.00
2022-10-19T14:59:32.289Z,14.30
2022-10-19T15:02:32.360Z,8.70
2022-10-19T15:05:22.274Z,8.90
2022-10-19T15:08:10.677Z,39.70
2022-10-19T15:10:52.939Z,117.40
2022-10-19T15:13:42.824Z,43.70
2022-10-19T15:16:35.054Z,24.10
2022-10-19T15:19:41.129Z,113.10
2022-10-19T15:22:38.788Z,36.30
2022-10-19T15:25:34.507Z,22.70
2022-10-19T15:28:21.933Z,26.10
2022-10-19T15:31:18.020Z,24.90
2022-10-19T15:34:02.217Z,29.70
2022-10-19T15:36:57.726Z,24.00
2022-10-19T15:39:43.332Z,19.60
2022-10-19T15:42:36.284Z,23.90
2022-10-19T15:45:33.212Z,24.90
2022-10-19T15:48:27.816Z,30.30
2022-10-19T15:51:25.995Z,18.50
2022-10-19T15:54:11.320Z,17.60
2022-10-19T15:56:57.761Z,14.10
2022-10-19T15:59:40.477Z,18.50
2022-10-19T16:02:25.245Z,28.60
2022-10-19T16:07:54.770Z,23.50
2022-10-19T16:10:39.082Z,26.20
2022-10-19T16:13:21.014Z,28.10
2022-10-19T16:16:11.346Z,29.00
2022-10-19T16:18:54.226Z,27.20
2022-10-19T16:21:37.044Z,30.40
2022-10-19T16:24:18.735Z,36.20
2022-10-19T16:27:00.939Z,43.90
2022-10-19T16:29:44.594Z,84.50
2022-10-19T16:32:26.316Z,83.60
2022-10-19T16:35:11.258Z,87.10
2022-10-19T16:37:53.639Z,84.10
2022-10-19T16:40:35.332Z,62.60
2022-10-19T16:43:17.329Z,59.40
2022-10-19T16:45:59.020Z,43.20
2022-10-19T16:48:41.105Z,45.80
2022-10-19T16:51:33.359Z,43.20
2022-10-19T16:54:17.727Z,31.70
2022-10-19T16:56:59.403Z,41.30
2022-10-19T16:59:41.236Z,57.90
2022-10-19T17:02:23.092Z,61.00
2022-10-19T17:05:05.091Z,55.30
2022-10-19T17:07:46.986Z,63.80
2022-10-19T17:10:28.818Z,53.50
2022-10-19T17:13:10.575Z,52.90
2022-10-19T17:15:52.264Z,46.70
2022-10-19T17:18:34.160Z,44.40
2022-10-19T17:21:19.915Z,38.90
2022-10-19T17:24:03.866Z,65.10
2022-10-19T17:26:46.043Z,26.00
2022-10-19T17:29:27.886Z,31.60
2022-10-19T17:32:09.684Z,24.40
2022-10-19T17:34:54.240Z,61.90
2022-10-19T17:37:36.103Z,64.00
2022-10-19T17:40:18.133Z,53.90
2022-10-19T17:42:59.822Z,76.50
2022-10-19T17:45:41.513Z,103.10
2022-10-19T17:48:23.207Z,129.30
2022-10-19T17:51:07.899Z,112.50
2022-10-19T17:53:51.503Z,99.30
2022-10-19T17:56:34.523Z,99.80
2022-10-19T17:59:16.316Z,129.20
2022-10-19T18:01:58.009Z,133.30
2022-10-19T18:04:40.218Z,94.50
2022-10-19T18:07:25.793Z,123.80
2022-10-19T18:10:08.201Z,106.80
2022-10-19T18:12:51.079Z,163.60
2022-10-19T18:15:33.184Z,143.70
2022-10-19T18:18:14.858Z,113.70
2022-10-19T18:20:56.879Z,63.30
2022-10-19T18:23:38.855Z,61.20
2022-10-19T18:26:25.820Z,62.30
2022-10-19T18:29:13.525Z,71.70
2022-10-19T18:31:55.509Z,87.90
2022-10-19T18:34:37.447Z,103.10
2022-10-19T18:37:19.240Z,131.40
2022-10-19T18:40:01.039Z,112.10
2022-10-19T18:42:43.645Z,94.00
2022-10-19T18:45:25.439Z,91.50
2022-10-19T18:48:07.131Z,83.60
2022-10-19T18:50:49.355Z,59.20
2022-10-19T18:53:32.410Z,78.40
2022-10-19T18:56:17.329Z,73.30
2022-10-19T18:58:59.116Z,74.10
2022-10-19T19:01:40.935Z,124.70
2022-10-19T19:04:22.702Z,158.60
2022-10-19T19:07:05.548Z,148.20
2022-10-19T19:09:48.267Z,128.20
2022-10-19T19:12:31.360Z,97.10
2022-10-19T19:15:13.357Z,76.00
2022-10-19T19:17:55.355Z,69.00
2022-10-19T19:20:40.940Z,85.90
2022-10-19T19:23:22.628Z,103.20
2022-10-19T19:26:04.627Z,94.50
2022-10-19T19:28:49.255Z,81.80
2022-10-19T19:31:34.068Z,83.70
2022-10-19T19:34:16.770Z,66.50
2022-10-19T19:36:59.101Z,64.20
2022-10-19T19:39:41.892Z,69.90
2022-10-19T19:42:27.714Z,72.70
2022-10-19T19:45:10.900Z,70.70
2022-10-19T19:47:53.598Z,66.80
2022-10-19T19:50:38.295Z,61.70
2022-10-19T19:53:21.401Z,61.20
2022-10-19T19:56:03.299Z,73.40
2022-10-19T19:58:47.378Z,74.30
2022-10-19T20:01:29.686Z,67.60
2022-10-19T20:04:12.982Z,56.50
2022-10-19T20:06:55.746Z,56.40
2022-10-19T20:09:37.915Z,52.20
2022-10-19T20:12:20.757Z,57.40
2022-10-19T20:15:03.140Z,81.80
2022-10-19T20:17:45.967Z,84.40
2022-10-19T20:20:28.056Z,78.80
2022-10-19T20:23:10.678Z,75.30
2022-10-19T20:25:53.878Z,81.70
2022-10-19T20:28:35.568Z,90.80
2022-10-19T20:31:18.139Z,86.30
2022-10-19T20:34:00.082Z,84.60
2022-10-19T20:36:42.383Z,82.40
2022-10-19T20:39:24.073Z,74.70
2022-10-19T20:42:05.707Z,74.60
2022-10-19T20:44:48.479Z,92.50
2022-10-19T20:47:30.375Z,98.60
2022-10-19T20:50:19.244Z,97.30
2022-10-19T20:53:04.302Z,87.90
2022-10-19T20:55:46.199Z,78.20
2022-10-19T20:58:27.997Z,95.20
2022-10-19T21:01:15.695Z,311.00
2022-10-19T21:04:00.878Z,228.60
2022-10-19T21:06:45.456Z,426.10
2022-10-19T21:09:27.353Z,437.00
2022-10-19T21:12:09.145Z,358.20
2022-10-19T21:14:51.360Z,194.00
2022-10-19T21:17:33.245Z,95.30
2022-10-19T21:20:15.036Z,71.70
2022-10-19T21:23:01.570Z,59.30
2022-10-19T21:25:53.467Z,65.90
2022-10-19T21:28:35.380Z,67.60
2022-10-19T21:31:17.628Z,128.10
2022-10-19T21:33:59.946Z,111.10
2022-10-19T21:36:44.129Z,95.20
2022-10-19T21:39:26.650Z,52.90
2022-10-19T21:42:08.429Z,46.90
2022-10-19T21:44:54.023Z,73.50
2022-10-19T21:47:42.768Z,81.80
2022-10-19T21:50:24.459Z,66.90
2022-10-19T21:53:06.253Z,55.60
2022-10-19T21:55:48.046Z,47.50
2022-10-19T21:58:29.737Z,43.80
2022-10-19T22:01:11.590Z,41.20
2022-10-19T22:03:58.034Z,55.50
2022-10-19T22:06:39.994Z,63.50
2022-10-19T22:09:22.342Z,69.50
2022-10-19T22:12:04.237Z,77.40
2022-10-19T22:14:46.008Z,57.20
2022-10-19T22:17:27.638Z,106.70
2022-10-19T22:20:10.051Z,103.10
2022-10-19T22:22:54.241Z,135.00
2022-10-19T22:25:36.886Z,55.00
2022-10-19T22:28:18.577Z,75.80
2022-10-19T22:31:00.365Z,40.10
2022-10-19T22:33:42.061Z,37.10
2022-10-19T22:36:23.753Z,29.90
2022-10-19T22:39:06.059Z,33.70
2022-10-19T22:41:47.747Z,99.50
2022-10-19T22:44:29.950Z,211.20
2022-10-19T22:47:11.744Z,192.50
2022-10-19T22:49:53.435Z,201.70
2022-10-19T22:52:35.220Z,157.50
2022-10-19T22:55:17.248Z,58.30
2022-10-19T22:57:59.057Z,72.80
2022-10-19T23:00:41.018Z,72.60
2022-10-19T23:03:22.712Z,61.00
2022-10-19T23:06:04.399Z,58.30
2022-10-19T23:08:48.033Z,54.40
2022-10-19T23:11:29.830Z,48.40
2022-10-19T23:14:11.521Z,45.50
2022-10-19T23:16:53.211Z,46.80
2022-10-19T23:19:34.912Z,44.30
2022-10-19T23:22:16.695Z,45.40
2022-10-19T23:24:58.387Z,45.00
2022-10-19T23:27:40.383Z,49.60
2022-10-19T23:30:22.177Z,41.50
2022-10-19T23:33:03.972Z,44.60
2022-10-19T23:35:45.663Z,43.20
2022-10-19T23:38:27.353Z,46.90
2022-10-19T23:41:09.455Z,44.70
2022-10-19T23:43:51.562Z,54.40
2022-10-19T23:46:33.244Z,55.70
2022-10-19T23:49:15.087Z,47.10
2022-10-19T23:51:56.933Z,50.90
2022-10-19T23:54:38.625Z,50.60
2022-10-19T23:57:20.420Z,57.40
